Time;durP1;ratioP1;P1;durP2;ratioP2;P2;SDS_P1;SDS_P2;PMS_P1;PMS_P2;Temp;Humidity;BMP_temperature;BMP_pressure;BME280_temperature;BME280_humidity;BME280_pressure;Samples;Min_cycle;Max_cycle;Signal;HPM_P1;HPM_P2
2022/06/12 00:02:23;;;;;;;12.30;2.38;;;;;;;21.46;52.43;99157.53;4994047;28;20022;-49
2022/06/12 00:04:49;;;;;;;4.75;2.75;;;;;;;21.22;53.04;99154.44;4996193;28;20389;-48
2022/06/12 00:07:14;;;;;;;4.30;2.15;;;;;;;20.98;53.96;99152.16;4996022;28;20030;-49
2022/06/12 00:09:40;;;;;;;6.28;2.03;;;;;;;20.82;54.74;99164.59;4996135;28;20046;-49
2022/06/12 00:12:06;;;;;;;8.02;2.63;;;;;;;20.85;54.73;99158.75;4996008;28;20492;-49
2022/06/12 00:14:32;;;;;;;5.65;1.80;;;;;;;20.91;54.32;99159.59;4996005;28;20078;-49
2022/06/12 00:16:57;;;;;;;4.65;2.20;;;;;;;20.81;54.72;99168.31;5004559;28;20145;-49
2022/06/12 00:19:23;;;;;;;2.83;1.90;;;;;;;20.70;54.87;99166.63;5015537;28;20399;-48
2022/06/12 00:21:50;;;;;;;8.07;2.30;;;;;;;20.56;55.23;99163.56;5015370;28;20038;-49
2022/06/12 00:24:19;;;;;;;5.57;2.00;;;;;;;20.47;55.54;99154.41;5015483;28;20434;-49
2022/06/12 00:26:50;;;;;;;6.43;2.08;;;;;;;20.45;56.00;99160.00;4997646;28;20104;-48
2022/06/12 00:29:22;;;;;;;3.63;1.77;;;;;;;20.71;55.42;99160.25;4997728;28;20034;-49
2022/06/12 00:32:01;;;;;;;9.85;2.30;;;;;;;21.04;54.17;99142.31;5015328;28;20101;-49
2022/06/12 00:34:36;;;;;;;6.82;2.15;;;;;;;21.11;53.71;99148.25;5015261;28;20034;-49
2022/06/12 00:37:03;;;;;;;3.45;2.42;;;;;;;21.02;53.78;99158.59;5015177;28;20018;-49
2022/06/12 00:39:32;;;;;;;7.60;2.13;;;;;;;20.92;53.78;99159.31;5015124;28;20108;-49
2022/06/12 00:41:59;;;;;;;5.47;2.28;;;;;;;20.84;54.30;99156.34;5015116;28;20028;-48
2022/06/12 00:44:31;;;;;;;6.93;2.20;;;;;;;20.84;54.43;99159.78;4997419;28;20079;-49
2022/06/12 00:47:01;;;;;;;7.80;2.00;;;;;;;20.83;54.43;99150.19;5014990;28;20053;-49
2022/06/12 00:49:35;;;;;;;10.80;2.80;;;;;;;20.91;54.59;99156.94;5015007;28;20379;-49
2022/06/12 00:52:25;;;;;;;4.60;2.45;;;;;;;20.96;54.23;99148.94;5014891;28;20029;-49
2022/06/12 00:55:00;;;;;;;12.43;2.30;;;;;;;20.88;54.81;99152.09;4997252;28;20060;-49
2022/06/12 00:57:26;;;;;;;7.43;2.40;;;;;;;21.01;54.69;99150.88;4997157;28;20555;-49
2022/06/12 00:59:56;;;;;;;10.57;2.80;;;;;;;21.07;54.47;99149.84;5014763;28;20029;-48
2022/06/12 01:02:27;;;;;;;3.72;2.00;;;;;;;21.16;53.93;99145.59;4997031;28;20033;-49
2022/06/12 01:07:43;;;;;;;5.50;2.00;;;;;;;21.23;53.64;99148.03;5014842;28;20033;-49
2022/06/12 01:10:15;;;;;;;8.20;2.13;;;;;;;21.13;53.66;99143.47;5014634;28;20037;-49
2022/06/12 01:12:48;;;;;;;5.95;2.08;;;;;;;21.04;53.78;99147.66;5014521;28;20037;-48
2022/06/12 01:15:21;;;;;;;6.57;1.95;;;;;;;21.25;53.46;99146.72;5013871;28;20030;-49
2022/06/12 01:17:48;;;;;;;6.25;1.60;;;;;;;21.33;52.78;99150.78;5014278;28;20128;-49
2022/06/12 01:20:24;;;;;;;4.63;2.22;;;;;;;21.11;53.13;99153.59;5014430;28;20025;-49
2022/06/12 01:23:14;;;;;;;7.70;1.83;;;;;;;20.80;54.04;99158.69;5014309;28;20521;-49
2022/06/12 01:25:55;;;;;;;6.35;1.88;;;;;;;20.53;54.83;99156.06;5014339;28;20072;-49
2022/06/12 01:28:45;;;;;;;3.47;1.60;;;;;;;20.38;55.50;99158.59;5014876;28;20022;-49
2022/06/12 01:31:28;;;;;;;5.38;2.28;;;;;;;20.06;56.16;99151.34;5014272;28;20053;-49
2022/06/12 01:33:56;;;;;;;10.23;7.55;;;;;;;19.83;56.82;99157.78;4996578;28;20069;-49
2022/06/12 01:36:45;;;;;;;7.22;2.85;;;;;;;19.71;57.44;99150.72;5014132;28;20018;-49
2022/06/12 01:39:20;;;;;;;6.20;2.20;;;;;;;19.63;57.58;99145.00;5014147;28;20109;-49
2022/06/12 01:42:13;;;;;;;9.05;2.35;;;;;;;19.49;58.17;99150.69;5014105;28;20021;-48
2022/06/12 01:44:52;;;;;;;9.20;5.53;;;;;;;19.47;58.30;99144.81;5014090;28;20030;-48
2022/06/12 01:48:09;;;;;;;5.50;2.50;;;;;;;19.48;58.48;99145.63;5013877;28;20014;-49
2022/06/12 01:50:44;;;;;;;11.40;2.83;;;;;;;19.80;57.99;99150.28;4984036;28;20046;-48
2022/06/12 01:53:39;;;;;;;5.30;1.85;;;;;;;20.19;56.59;99137.63;5013848;28;20030;-49
2022/06/12 01:56:24;;;;;;;7.50;2.90;;;;;;;20.31;55.92;99140.94;4996168;28;20041;-48
2022/06/12 01:59:18;;;;;;;7.72;2.50;;;;;;;20.21;55.83;99142.72;4996117;28;20095;-49
2022/06/12 02:01:58;;;;;;;3.58;1.85;;;;;;;20.07;56.33;99140.44;5013599;28;20030;-49
2022/06/12 02:04:43;;;;;;;5.47;1.85;;;;;;;19.84;56.89;99154.03;4996002;28;20032;-49
2022/06/12 02:07:30;;;;;;;3.83;1.90;;;;;;;19.60;57.81;99158.78;5013816;28;20185;-48
2022/06/12 02:10:09;;;;;;;7.55;3.47;;;;;;;19.40;58.55;99165.50;5013443;28;20391;-48
2022/06/12 02:15:35;;;;;;;4.25;2.00;;;;;;;19.63;58.16;99155.66;5013395;28;20569;-48
2022/06/12 02:18:08;;;;;;;8.85;2.25;;;;;;;19.75;57.78;99151.81;5013085;28;20074;-48
2022/06/12 02:20:38;;;;;;;6.55;2.15;;;;;;;19.86;57.16;99139.44;5013305;28;20400;-49
2022/06/12 02:23:20;;;;;;;10.45;2.42;;;;;;;19.92;57.45;99135.78;5013235;28;20055;-48
2022/06/12 02:25:52;;;;;;;4.20;2.30;;;;;;;19.87;57.02;99138.38;4996683;28;20029;-49
2022/06/12 02:28:31;;;;;;;11.45;3.72;;;;;;;19.69;57.23;99138.69;5013070;28;20030;-49
2022/06/12 02:31:04;;;;;;;3.10;1.95;;;;;;;19.62;57.40;99146.88;5013071;28;20491;-49
2022/06/12 02:33:36;;;;;;;7.03;2.50;;;;;;;19.51;57.38;99145.13;5013093;28;20105;-48
2022/06/12 02:36:12;;;;;;;6.93;2.13;;;;;;;19.38;57.83;99145.47;5012984;28;20030;-49
2022/06/12 02:38:57;;;;;;;5.47;1.63;;;;;;;19.33;58.09;99144.34;5012973;28;20606;-49
2022/06/12 02:41:29;;;;;;;5.47;1.90;;;;;;;19.34;58.14;99145.19;5012961;28;20048;-49
2022/06/12 02:44:08;;;;;;;8.13;2.05;;;;;;;19.41;58.25;99145.00;5012859;28;20483;-49
2022/06/12 02:46:38;;;;;;;7.45;2.35;;;;;;;19.30;58.25;99142.19;5012791;28;20091;-48
2022/06/12 02:49:06;;;;;;;4.93;2.42;;;;;;;19.11;59.06;99146.19;4995160;28;20022;-49
2022/06/12 02:51:45;;;;;;;10.50;2.47;;;;;;;18.99;59.94;99143.63;5012731;28;20511;-48
2022/06/12 02:54:36;;;;;;;7.18;2.92;;;;;;;19.00;59.88;99147.91;5012779;28;20443;-48
2022/06/12 02:57:19;;;;;;;8.45;3.28;;;;;;;19.08;59.76;99146.69;5012614;28;20097;-49
2022/06/12 03:00:16;;;;;;;10.23;4.63;;;;;;;19.23;59.16;99149.53;5012654;28;20048;-49
2022/06/12 03:02:50;;;;;;;5.95;2.85;;;;;;;19.33;58.71;99146.22;5012502;28;20024;-48
2022/06/12 03:05:24;;;;;;;5.90;2.40;;;;;;;19.18;58.94;99141.50;5012562;28;20030;-48
2022/06/12 03:08:00;;;;;;;2.63;1.70;;;;;;;18.98;59.65;99141.22;5012448;28;20091;-49
2022/06/12 03:10:44;;;;;;;5.85;1.98;;;;;;;18.74;59.93;99136.84;5012457;28;20025;-49
2022/06/12 03:13:11;;;;;;;11.10;7.97;;;;;;;18.82;60.40;99135.69;5012424;28;20041;-48
2022/06/12 03:15:43;;;;;;;4.75;3.40;;;;;;;18.86;60.06;99136.78;4994680;28;20395;-49
2022/06/12 03:18:15;;;;;;;7.85;2.67;;;;;;;18.81;60.48;99142.03;5012146;28;20097;-49
2022/06/12 03:21:08;;;;;;;11.25;5.28;;;;;;;18.63;60.66;99147.56;5012296;28;20034;-49
2022/06/12 03:24:04;;;;;;;6.60;2.45;;;;;;;18.48;61.33;99143.63;5012330;28;20029;-48
2022/06/12 03:26:46;;;;;;;4.85;2.40;;;;;;;18.41;61.37;99142.16;5012180;28;20088;-49
2022/06/12 03:29:31;;;;;;;9.00;2.53;;;;;;;18.28;61.57;99143.28;4994567;28;20117;-48
2022/06/12 03:32:38;;;;;;;5.10;2.20;;;;;;;18.40;61.66;99146.66;4994573;28;20026;-49
2022/06/12 03:35:34;;;;;;;11.20;2.70;;;;;;;18.36;61.60;99140.22;4974499;28;20116;-49
2022/06/12 03:38:19;;;;;;;;;;;;;;;18.31;61.84;99132.16;5012219;28;20137;-48
2022/06/12 03:40:53;;;;;;;8.82;2.58;;;;;;;18.38;62.27;99129.38;5010806;28;19910;-49
2022/06/12 03:43:39;;;;;;;5.53;3.13;;;;;;;18.61;61.51;99133.72;5012052;28;20117;-47
2022/06/12 03:46:23;;;;;;;;;;;;;;;18.71;60.95;99140.00;5012431;28;20088;-48
2022/06/12 03:49:34;;;;;;;6.75;2.55;;;;;;;18.72;60.67;99124.84;5011930;28;19925;-48
2022/06/12 03:52:12;;;;;;;10.82;3.05;;;;;;;18.80;60.99;99126.34;4996561;28;20121;-48
2022/06/12 03:55:11;;;;;;;12.13;2.42;;;;;;;19.05;60.23;99134.66;5011964;28;20407;-48
2022/06/12 03:57:53;;;;;;;6.13;2.25;;;;;;;19.22;59.30;99133.84;4994291;28;20045;-49
2022/06/12 04:00:21;;;;;;;8.25;2.80;;;;;;;19.14;59.03;99141.19;5011899;28;20447;-49
2022/06/12 04:03:12;;;;;;;6.25;2.70;;;;;;;19.15;59.46;99128.69;4994270;28;20026;-49
2022/06/12 04:05:44;;;;;;;10.30;3.20;;;;;;;19.28;58.70;99136.31;4994231;28;20396;-49
2022/06/12 04:08:17;;;;;;;6.90;2.63;;;;;;;19.08;58.93;99134.19;5011712;28;20100;-48
2022/06/12 04:10:44;;;;;;;6.78;4.25;;;;;;;18.96;59.22;99133.50;5011812;28;20046;-49
2022/06/12 04:13:13;;;;;;;7.38;2.83;;;;;;;18.81;59.82;99131.38;5011758;28;20092;-48
2022/06/12 04:15:54;;;;;;;8.98;2.38;;;;;;;18.68;60.20;99129.03;4994069;28;20121;-48
2022/06/12 04:18:20;;;;;;;4.97;2.35;;;;;;;18.72;60.24;99140.81;4972780;28;20074;-48
2022/06/12 04:20:58;;;;;;;9.10;3.05;;;;;;;18.67;60.83;99146.03;4972651;28;20026;-49
2022/06/12 04:23:48;;;;;;;6.85;4.57;;;;;;;18.82;60.24;99148.97;4971378;28;20441;-49
2022/06/12 04:26:31;;;;;;;5.10;2.15;;;;;;;19.04;59.26;99157.00;4972643;28;20034;-49
2022/06/12 04:29:10;;;;;;;3.28;2.40;;;;;;;19.10;58.92;99153.38;4972713;28;20022;-48
2022/06/12 04:31:36;;;;;;;6.95;3.30;;;;;;;19.06;59.17;99162.09;4972657;28;20042;-49
2022/06/12 04:34:07;;;;;;;6.35;2.08;;;;;;;19.23;58.80;99157.53;4972589;28;20396;-49
2022/06/12 04:36:33;;;;;;;8.73;2.53;;;;;;;19.35;58.39;99157.44;4972616;28;20031;-49
2022/06/12 04:38:59;;;;;;;8.98;2.10;;;;;;;19.41;58.17;99156.44;4971247;28;20065;-49
2022/06/12 04:41:31;;;;;;;10.10;2.22;;;;;;;19.47;58.05;99162.63;4972538;28;20101;-49
2022/06/12 04:43:57;;;;;;;5.85;2.20;;;;;;;19.63;57.75;99172.44;4971248;28;20471;-48
2022/06/12 04:46:24;;;;;;;7.22;2.97;;;;;;;19.71;57.45;99168.56;4972443;28;20505;-49
2022/06/12 04:48:54;;;;;;;6.60;3.47;;;;;;;19.85;57.27;99174.31;4973191;28;20369;-49
2022/06/12 04:51:20;;;;;;;8.60;2.42;;;;;;;19.77;56.71;99172.88;4974619;28;20093;-49
2022/06/12 04:53:47;;;;;;;6.65;2.53;;;;;;;19.49;57.28;99173.84;4976124;28;20039;-49
2022/06/12 04:56:16;;;;;;;6.10;1.92;;;;;;;19.23;57.69;99175.34;4975857;28;20501;-48
2022/06/12 04:58:42;;;;;;;6.70;2.13;;;;;;;19.14;58.52;99181.09;4975771;28;20393;-49
2022/06/12 05:01:09;;;;;;;6.22;2.13;;;;;;;19.38;58.21;99175.59;4974447;28;20034;-48
2022/06/12 05:03:35;;;;;;;2.85;1.73;;;;;;;19.48;57.34;99183.69;4974469;28;20022;-48
2022/06/12 05:06:02;;;;;;;5.07;2.47;;;;;;;19.75;56.77;99181.13;4974365;28;20023;-49
2022/06/12 05:08:28;;;;;;;4.50;2.05;;;;;;;20.35;55.33;99175.91;4974249;28;20110;-49
2022/06/12 05:10:54;;;;;;;10.00;4.35;;;;;;;20.87;54.00;99166.50;4975622;28;20035;-49
2022/06/12 05:13:20;;;;;;;8.95;4.65;;;;;;;21.43;52.56;99168.72;4975804;28;20031;-49
2022/06/12 05:15:46;;;;;;;10.57;3.08;;;;;;;22.44;50.06;99162.09;4974198;28;20482;-49
2022/06/12 05:18:15;;;;;;;8.20;2.45;;;;;;;23.71;47.52;99168.31;4992665;28;20104;-49
2022/06/12 05:20:42;;;;;;;7.75;2.17;;;;;;;24.98;43.87;99166.97;4994807;28;20026;-49
2022/06/12 05:23:08;;;;;;;6.82;1.90;;;;;;;25.89;41.49;99165.09;4993504;28;20050;-49
2022/06/12 05:25:35;;;;;;;5.65;2.20;;;;;;;26.84;39.63;99169.63;4994716;28;20018;-48
2022/06/12 05:28:03;;;;;;;6.03;1.73;;;;;;;27.29;38.11;99165.34;4993298;28;20113;-48
2022/06/12 05:30:32;;;;;;;7.78;2.30;;;;;;;27.82;37.86;99158.59;4994834;28;20023;-49
2022/06/12 05:32:59;;;;;;;4.97;2.50;;;;;;;28.56;36.27;99168.28;4993399;28;20026;-49
2022/06/12 05:35:27;;;;;;;4.85;1.98;;;;;;;28.65;35.89;99166.47;4993208;28;20117;-49
2022/06/12 05:37:52;;;;;;;5.78;2.45;;;;;;;29.05;34.85;99169.19;4993182;28;20041;-49
2022/06/12 05:40:23;;;;;;;4.32;2.20;;;;;;;29.22;34.10;99170.44;4993151;28;20023;-49
2022/06/12 05:42:49;;;;;;;4.70;2.28;;;;;;;29.84;33.33;99170.28;4994548;28;20038;-48
2022/06/12 05:45:21;;;;;;;4.10;2.13;;;;;;;30.38;32.29;99171.91;4994370;28;20064;-48
2022/06/12 05:47:50;;;;;;;4.97;2.47;;;;;;;30.86;31.45;99171.66;4994315;28;20499;-49
2022/06/12 05:50:17;;;;;;;5.97;2.15;;;;;;;30.93;31.49;99175.81;4994280;28;20110;-49
2022/06/12 05:52:43;;;;;;;5.97;2.08;;;;;;;31.20;31.23;99169.97;4992939;28;20034;-49
2022/06/12 05:55:10;;;;;;;5.28;2.08;;;;;;;31.41;31.10;99161.09;4992911;28;20018;-49
2022/06/12 05:57:36;;;;;;;7.18;2.25;;;;;;;31.87;29.68;99170.25;4994131;28;20031;-50
2022/06/12 06:00:05;;;;;;;4.00;2.17;;;;;;;31.91;30.20;99160.31;4993888;28;20029;-49
2022/06/12 06:02:30;;;;;;;4.95;2.58;;;;;;;32.45;29.34;99165.78;4992678;28;20117;-49
2022/06/12 06:04:56;;;;;;;4.78;2.22;;;;;;;33.25;28.57;99172.00;4992734;28;20110;-49
2022/06/12 06:07:21;;;;;;;7.13;2.10;;;;;;;34.13;27.40;99175.06;4992518;28;20030;-49
2022/06/12 06:09:47;;;;;;;5.32;2.00;;;;;;;35.03;25.74;99180.19;4993962;28;20026;-48
2022/06/12 06:12:13;;;;;;;5.93;2.28;;;;;;;35.79;24.59;99183.56;4992609;28;20027;-49
2022/06/12 06:14:38;;;;;;;8.95;2.45;;;;;;;36.37;23.83;99199.22;4993829;28;20018;-50
2022/06/12 06:17:05;;;;;;;6.00;1.80;;;;;;;36.69;23.53;99193.59;5003128;28;20058;-50
2022/06/12 06:19:31;;;;;;;8.30;2.47;;;;;;;37.26;23.56;99193.00;5013285;28;20105;-49
2022/06/12 06:21:57;;;;;;;6.57;2.28;;;;;;;38.05;22.19;99197.66;5013229;28;20105;-49
2022/06/12 06:24:23;;;;;;;6.97;2.20;;;;;;;38.76;21.54;99203.19;4995627;28;20456;-50
2022/06/12 06:26:49;;;;;;;5.55;1.73;;;;;;;39.02;20.87;99198.72;5013384;28;20088;-50
2022/06/12 06:29:14;;;;;;;7.30;2.65;;;;;;;39.07;21.38;99203.06;4995516;28;20022;-50
2022/06/12 06:31:40;;;;;;;4.78;1.98;;;;;;;38.57;20.82;99203.38;5013115;28;20033;-49
2022/06/12 06:34:06;;;;;;;4.22;1.90;;;;;;;38.68;20.89;99207.03;4995433;28;20156;-50
2022/06/12 06:36:32;;;;;;;4.50;1.60;;;;;;;39.17;20.85;99199.63;5013069;28;20133;-50
2022/06/12 06:38:59;;;;;;;8.77;1.85;;;;;;;39.42;19.96;99199.84;5013020;28;20095;-50
2022/06/12 06:41:25;;;;;;;5.10;1.60;;;;;;;39.80;19.40;99186.69;5012960;28;20092;-49
2022/06/12 06:46:35;;;;;;;5.85;2.22;;;;;;;40.86;17.75;99197.69;5013071;28;20068;-50
2022/06/12 06:49:02;;;;;;;3.20;1.52;;;;;;;40.73;18.00;99200.78;4995182;28;20109;-50
2022/06/12 06:51:28;;;;;;;3.55;2.15;;;;;;;40.03;18.61;99208.44;5012747;28;20037;-49
2022/06/12 06:53:53;;;;;;;11.15;4.68;;;;;;;40.27;18.36;99204.19;5012755;28;20030;-49
2022/06/12 06:56:20;;;;;;;4.90;1.88;;;;;;;40.90;17.65;99207.50;4994961;28;20034;-50
2022/06/12 06:58:47;;;;;;;9.65;1.90;;;;;;;41.35;17.10;99206.34;5012628;28;20021;-50
2022/06/12 07:01:13;;;;;;;6.93;2.00;;;;;;;41.62;16.83;99204.75;5012584;28;20058;-50
2022/06/12 07:03:38;;;;;;;7.05;1.63;;;;;;;41.88;16.31;99211.75;5012582;28;20018;-50
2022/06/12 07:06:04;;;;;;;5.88;1.80;;;;;;;42.11;16.33;99205.75;4994822;28;20037;-50
2022/06/12 07:08:30;;;;;;;6.60;1.90;;;;;;;42.22;16.15;99202.97;5012423;28;20026;-50
2022/06/12 07:10:56;;;;;;;6.20;2.05;;;;;;;42.48;16.00;99209.94;5012284;28;20503;-52
2022/06/12 07:13:23;;;;;;;7.15;2.13;;;;;;;42.77;16.12;99197.91;5012102;28;20105;-52
2022/06/12 07:15:49;;;;;;;12.90;2.13;;;;;;;42.80;16.15;99199.84;4994714;28;20037;-52
2022/06/12 07:18:15;;;;;;;4.82;1.70;;;;;;;42.01;16.40;99200.25;5012224;28;20492;-52
2022/06/12 07:20:49;;;;;;;6.53;2.13;;;;;;;41.57;16.43;99202.34;5012312;28;20037;-52
2022/06/12 07:23:18;;;;;;;8.02;2.33;;;;;;;40.86;17.26;99208.69;4994714;28;20448;-53
2022/06/12 07:25:49;;;;;;;5.70;2.22;;;;;;;40.04;17.93;99212.75;5012209;28;20032;-51
2022/06/12 07:28:16;;;;;;;8.50;2.50;;;;;;;39.69;18.80;99205.88;5012235;28;20030;-50
2022/06/12 07:30:43;;;;;;;6.05;2.15;;;;;;;39.74;18.48;99204.72;5012219;28;20026;-50
2022/06/12 07:33:09;;;;;;;3.28;1.77;;;;;;;40.15;17.72;99201.81;5012495;28;20076;-50
2022/06/12 07:35:38;;;;;;;3.35;1.92;;;;;;;40.73;17.09;99206.28;4994480;28;20026;-49
2022/06/12 07:38:04;;;;;;;5.25;2.35;;;;;;;41.21;16.97;99212.63;4994640;28;20442;-50
2022/06/12 07:40:35;;;;;;;4.57;2.45;;;;;;;41.17;16.58;99198.88;4994378;28;20030;-50
2022/06/12 07:43:01;;;;;;;4.95;1.98;;;;;;;40.86;17.21;99208.69;5012112;28;20040;-50
2022/06/12 07:45:27;;;;;;;6.07;1.90;;;;;;;41.27;16.86;99202.78;5012029;28;20097;-50
2022/06/12 07:47:52;;;;;;;8.13;2.47;;;;;;;41.90;16.53;99198.34;4994301;28;20057;-50
2022/06/12 07:50:18;;;;;;;7.78;2.28;;;;;;;42.41;15.76;99195.38;5011885;28;20067;-50
2022/06/12 07:52:44;;;;;;;10.10;1.73;;;;;;;42.34;15.84;99195.38;5011948;28;20025;-51
2022/06/12 07:55:14;;;;;;;4.00;2.03;;;;;;;41.47;16.17;99194.88;4994248;28;20129;-49
2022/06/12 07:57:40;;;;;;;6.13;1.88;;;;;;;41.51;16.21;99193.72;5011703;28;20503;-53
2022/06/12 08:00:07;;;;;;;6.43;2.42;;;;;;;41.19;16.66;99190.22;4994162;28;20129;-51
2022/06/12 08:02:33;;;;;;;3.78;1.80;;;;;;;41.48;16.33;99189.00;4994142;28;20056;-52
2022/06/12 08:04:58;;;;;;;4.38;2.10;;;;;;;41.54;16.66;99183.09;5011888;28;20110;-52
2022/06/12 08:07:24;;;;;;;3.50;1.50;;;;;;;41.79;16.11;99183.03;4994083;28;20022;-52
2022/06/12 08:09:50;;;;;;;2.70;1.55;;;;;;;41.86;15.85;99177.50;4994175;28;20561;-53
2022/06/12 08:12:16;;;;;;;3.75;1.60;;;;;;;41.96;16.18;99170.34;4994140;28;20041;-52
2022/06/12 08:14:41;;;;;;;3.28;1.85;;;;;;;42.31;15.75;99178.47;5011712;28;20037;-51
2022/06/12 08:17:07;;;;;;;5.10;1.73;;;;;;;42.10;16.11;99187.66;4993859;28;20054;-51
2022/06/12 08:22:17;;;;;;;3.53;1.50;;;;;;;42.37;16.29;99175.28;5011950;28;20041;-51
2022/06/12 08:24:44;;;;;;;4.65;1.67;;;;;;;41.99;16.70;99180.56;5015488;28;20030;-52
2022/06/12 08:27:10;;;;;;;5.00;1.50;;;;;;;42.45;16.38;99166.56;5015259;28;20026;-52
2022/06/12 08:29:36;;;;;;;5.15;1.90;;;;;;;42.62;16.79;99172.38;5015400;28;20026;-51
2022/06/12 08:32:11;;;;;;;7.93;2.45;;;;;;;42.64;16.42;99165.28;5015326;28;20046;-50
2022/06/12 08:34:41;;;;;;;7.43;1.58;;;;;;;43.06;16.14;99166.09;5015359;28;20072;-49
2022/06/12 08:37:19;;;;;;;7.82;1.70;;;;;;;43.12;16.10;99162.91;5015273;28;20033;-51
2022/06/12 08:39:46;;;;;;;5.50;1.73;;;;;;;42.97;16.18;99162.28;5015280;28;20029;-49
2022/06/12 08:42:36;;;;;;;5.18;1.42;;;;;;;42.40;16.37;99149.63;5015138;28;20018;-51
2022/06/12 08:45:21;;;;;;;6.60;1.45;;;;;;;42.24;16.67;99147.38;5015145;28;20038;-51
2022/06/12 08:48:18;;;;;;;2.42;1.40;;;;;;;42.26;16.61;99150.50;5015082;28;20502;-51
2022/06/12 08:50:52;;;;;;;2.72;1.42;;;;;;;42.44;16.59;99164.22;5015088;28;20473;-50
2022/06/12 08:53:17;;;;;;;;;;;;;;;42.46;16.63;99157.13;5015455;28;20030;-50
2022/06/12 08:55:58;;;;;;;3.88;1.60;;;;;;;42.34;16.40;99152.06;5014921;28;20458;-49
2022/06/12 08:58:27;;;;;;;7.80;1.50;;;;;;;42.43;16.45;99151.59;5014888;28;20029;-50
2022/06/12 09:00:54;;;;;;;8.35;1.60;;;;;;;42.76;15.99;99155.69;5014747;28;20022;-50
2022/06/12 09:03:23;;;;;;;2.80;1.30;;;;;;;43.02;16.18;99153.53;5014981;28;20030;-51
2022/06/12 09:06:08;;;;;;;4.13;1.30;;;;;;;42.80;15.83;99139.09;4997101;28;20025;-51
2022/06/12 09:09:09;;;;;;;7.70;1.48;;;;;;;42.71;15.98;99150.63;5014577;28;20041;-50
2022/06/12 09:11:43;;;;;;;4.82;1.35;;;;;;;42.79;15.84;99154.88;4996190;28;20550;-51
2022/06/12 09:14:42;;;;;;;10.25;1.65;;;;;;;43.55;15.16;99143.13;4996942;28;20060;-50
2022/06/12 09:17:36;;;;;;;5.68;1.55;;;;;;;44.22;14.61;99135.97;5013522;28;20060;-52
2022/06/12 09:20:08;;;;;;;7.32;1.70;;;;;;;44.80;14.15;99133.13;5014557;28;20042;-50
2022/06/12 09:23:02;;;;;;;4.53;1.30;;;;;;;44.84;14.32;99127.53;4996912;28;20045;-50
2022/06/12 09:25:37;;;;;;;6.22;1.30;;;;;;;45.33;14.18;99132.59;4987205;28;20510;-50
2022/06/12 09:28:12;;;;;;;4.78;1.70;;;;;;;45.57;13.77;99130.53;5014243;28;20022;-52
2022/06/12 09:31:01;;;;;;;5.50;1.88;;;;;;;45.65;14.04;99127.22;4996760;28;20092;-52
2022/06/12 09:34:04;;;;;;;5.38;1.27;;;;;;;45.82;13.47;99125.28;5014236;28;20028;-49
2022/06/12 09:36:45;;;;;;;3.10;1.10;;;;;;;45.52;13.02;99131.03;5014269;28;20087;-51
2022/06/12 09:39:22;;;;;;;4.68;1.20;;;;;;;45.67;12.94;99137.09;4996548;28;20504;-51
2022/06/12 09:42:17;;;;;;;4.15;1.38;;;;;;;45.80;13.01;99141.56;5014101;28;20057;-51
2022/06/12 09:44:55;;;;;;;5.43;1.90;;;;;;;45.67;12.70;99135.13;4996417;28;20120;-51
2022/06/12 09:47:43;;;;;;;7.70;1.58;;;;;;;45.73;12.71;99146.50;5013881;28;20546;-51
2022/06/12 09:50:34;;;;;;;2.75;1.38;;;;;;;45.79;12.60;99151.09;5014008;28;20056;-49
2022/06/12 09:53:21;;;;;;;5.65;1.70;;;;;;;45.51;12.63;99148.88;5013912;28;20048;-49
2022/06/12 09:55:55;;;;;;;4.68;1.73;;;;;;;45.17;12.94;99147.13;5013788;28;20025;-50
2022/06/12 09:58:33;;;;;;;6.38;1.42;;;;;;;45.24;13.19;99152.56;5014026;28;20104;-50
2022/06/12 10:01:22;;;;;;;4.82;1.20;;;;;;;45.37;12.65;99150.72;5013761;28;20029;-51
2022/06/12 10:03:59;;;;;;;2.47;1.15;;;;;;;44.78;13.29;99138.28;5013714;28;20041;-50
2022/06/12 10:06:42;;;;;;;3.67;1.10;;;;;;;44.97;13.14;99147.09;4995996;28;20499;-50
2022/06/12 10:09:43;;;;;;;5.30;1.50;;;;;;;45.08;13.49;99138.59;5013474;28;20032;-50
2022/06/12 10:12:21;;;;;;;6.88;1.35;;;;;;;45.13;13.44;99144.41;5013382;28;20030;-50
2022/06/12 10:15:03;;;;;;;2.83;1.25;;;;;;;45.26;13.41;99144.63;4995835;28;20034;-49
2022/06/12 10:17:41;;;;;;;2.97;1.27;;;;;;;45.46;13.49;99144.63;5013271;28;20054;-50
2022/06/12 10:20:20;;;;;;;4.60;1.40;;;;;;;45.33;13.37;99141.69;5013404;28;20488;-52
2022/06/12 10:22:52;;;;;;;2.75;1.27;;;;;;;45.36;13.26;99146.41;5013314;28;20160;-52
2022/06/12 10:25:35;;;;;;;4.65;1.40;;;;;;;45.12;13.64;99140.09;5013331;28;20476;-51
2022/06/12 10:28:06;;;;;;;6.57;1.88;;;;;;;45.15;13.87;99135.69;5013173;28;20034;-52
2022/06/12 10:30:41;;;;;;;3.53;1.50;;;;;;;45.13;13.43;99127.78;5013132;28;20507;-51
2022/06/12 10:33:47;;;;;;;7.70;1.45;;;;;;;45.35;13.37;99119.88;4995498;28;20021;-53
2022/06/12 10:36:33;;;;;;;5.50;1.20;;;;;;;45.49;12.50;99115.28;5013043;28;20061;-51
2022/06/12 10:39:13;;;;;;;4.70;1.60;;;;;;;45.62;12.68;99113.38;5013058;28;20113;-52
2022/06/12 10:41:52;;;;;;;7.18;1.75;;;;;;;45.05;12.78;99112.50;5013039;28;20031;-52
2022/06/12 10:44:43;;;;;;;9.40;1.40;;;;;;;44.98;13.12;99109.91;5012907;28;20087;-51
2022/06/12 10:47:31;;;;;;;6.22;1.33;;;;;;;45.36;13.09;99104.03;4994356;28;20029;-53
2022/06/12 10:50:19;;;;;;;6.95;1.27;;;;;;;45.59;13.06;99100.41;5012809;28;20036;-51
2022/06/12 10:53:06;;;;;;;6.30;1.35;;;;;;;45.54;13.03;99100.88;5012984;28;20143;-51
2022/06/12 10:55:51;;;;;;;4.07;1.27;;;;;;;45.65;13.14;99093.16;5012773;28;20163;-50
2022/06/12 10:58:50;;;;;;;8.15;2.85;;;;;;;45.82;13.18;99092.00;5012758;28;20064;-51
2022/06/12 11:01:28;;;;;;;2.67;0.95;;;;;;;45.45;13.06;99090.38;4994997;28;20030;-50
2022/06/12 11:04:26;;;;;;;3.50;1.50;;;;;;;45.21;13.21;99081.34;4995088;28;20407;-51
2022/06/12 11:07:06;;;;;;;2.40;1.30;;;;;;;45.24;13.57;99080.50;5012476;28;20030;-52
2022/06/12 11:09:59;;;;;;;5.05;1.85;;;;;;;45.50;13.43;99076.03;5012551;28;20033;-53
2022/06/12 11:13:03;;;;;;;4.30;1.10;;;;;;;45.14;13.96;99067.59;5012482;28;20607;-52
2022/06/12 11:15:44;;;;;;;4.53;1.48;;;;;;;45.20;14.08;99057.63;5012421;28;20079;-51
2022/06/12 11:18:25;;;;;;;8.00;1.73;;;;;;;45.56;13.38;99062.41;5012285;28;20084;-51
2022/06/12 11:21:04;;;;;;;4.43;1.40;;;;;;;45.79;13.49;99054.00;4994736;28;20040;-51
2022/06/12 11:23:58;;;;;;;5.47;1.00;;;;;;;46.07;13.33;99051.06;5012414;28;20458;-50
2022/06/12 11:26:42;;;;;;;3.03;1.15;;;;;;;45.98;13.20;99048.81;5012319;28;20557;-50
2022/06/12 11:29:39;;;;;;;2.88;1.10;;;;;;;45.75;13.39;99045.00;5012274;28;20033;-51
2022/06/12 11:32:20;;;;;;;4.72;1.02;;;;;;;45.40;13.36;99046.50;5012238;28;20025;-49
2022/06/12 11:34:56;;;;;;;5.00;1.27;;;;;;;45.19;13.20;99048.50;5012240;28;20376;-50
2022/06/12 11:37:56;;;;;;;2.85;1.23;;;;;;;45.09;13.82;99040.41;4994476;28;20417;-50
2022/06/12 11:40:24;;;;;;;4.15;1.52;;;;;;;45.19;13.96;99040.19;5012172;28;20034;-52
2022/06/12 11:43:19;;;;;;;4.47;1.92;;;;;;;45.02;13.65;99035.81;5012060;28;20368;-51
2022/06/12 11:46:22;;;;;;;4.30;1.40;;;;;;;44.91;13.76;99029.69;5012076;28;20026;-53
2022/06/12 11:49:13;;;;;;;3.40;1.23;;;;;;;44.97;13.86;99025.97;5011938;28;20113;-52
2022/06/12 11:51:56;;;;;;;9.80;1.90;;;;;;;44.78;14.31;99015.66;5011989;28;20113;-51
2022/06/12 11:54:34;;;;;;;3.95;1.45;;;;;;;45.15;13.65;99013.78;4994396;28;20426;-52
2022/06/12 11:57:21;;;;;;;4.03;1.40;;;;;;;45.07;13.73;99015.91;5011895;28;20034;-52
2022/06/12 12:00:07;;;;;;;3.63;1.05;;;;;;;44.73;13.86;99013.38;4998366;28;20076;-51
2022/06/12 12:02:45;;;;;;;3.60;1.00;;;;;;;44.82;13.79;99002.53;5015915;28;20061;-50
2022/06/12 12:05:46;;;;;;;5.97;2.50;;;;;;;44.63;14.06;98999.28;5015777;28;20060;-50
2022/06/12 12:08:36;;;;;;;3.95;1.55;;;;;;;44.60;13.62;98996.63;5015723;28;20033;-50
2022/06/12 12:11:08;;;;;;;4.97;1.50;;;;;;;44.64;13.10;98995.34;5015718;28;20141;-50
2022/06/12 12:13:50;;;;;;;4.07;1.45;;;;;;;44.53;13.83;98994.75;5016034;28;20025;-51
2022/06/12 12:16:47;;;;;;;3.05;1.00;;;;;;;44.43;13.78;98995.69;5015680;28;20040;-48
2022/06/12 12:19:45;;;;;;;2.78;1.10;;;;;;;44.24;13.95;98986.91;5015663;28;20092;-50
2022/06/12 12:22:24;;;;;;;4.05;1.20;;;;;;;43.92;14.44;98979.13;4971838;28;20084;-50
2022/06/12 12:25:00;;;;;;;6.28;1.05;;;;;;;44.02;13.65;98974.63;4997994;28;20030;-50
2022/06/12 12:27:42;;;;;;;3.35;1.40;;;;;;;43.41;13.99;98976.31;4997798;28;20021;-49